CDT,Max TemperatureF,Mean TemperatureF,Min TemperatureF,Max Dew PointF,MeanDew PointF,Min DewpointF,Max Humidity, Mean Humidity, Min Humidity, Max Sea Level PressureIn, Mean Sea Level PressureIn, Min Sea Level PressureIn, Max VisibilityMiles, Mean VisibilityMiles, Min VisibilityMiles, Max Wind SpeedMPH, Mean Wind SpeedMPH, Max Gust SpeedMPH,PrecipitationIn, CloudCover, Events, WindDirDegrees
2013-8-1,93,82,71,70,67,62,93,64,36,30.09,30.01,29.92,10,10,9,16,6,22,0.00,0,,109
2013-8-2,106,91,77,71,63,54,82,47,18,29.92,29.82,29.74,10,10,10,22,15,28,0.00,0,,189
2013-8-3,104,92,80,64,60,56,52,37,21,29.95,29.87,29.81,10,10,10,22,19,28,0.00,1,Rain,176
2013-8-4,102,88,75,64,60,55,64,41,22,30.00,29.93,29.86,10,10,10,18,13,22,0.00,0,,185
2013-8-5,104,90,78,65,60,54,62,38,20,29.91,29.85,29.73,10,10,10,21,16,29,0.00,0,,200
2013-8-6,107,90,75,60,57,54,58,32,18,29.89,29.77,29.67,10,10,10,20,15,32,0.00,0,,187
2013-8-7,98,86,75,72,65,60,70,52,30,29.91,29.81,29.76,10,10,6,21,12,25,0.01,1,Rain-Thunderstorm,54
2013-8-8,89,78,66,72,69,66,100,86,53,29.97,29.89,29.81,10,8,1,58,18,68,1.56,5,Rain-Thunderstorm,81
2013-8-9,84,75,66,70,68,64,100,85,53,30.14,30.00,29.88,10,10,2,14,9,,0.26,6,Rain-Thunderstorm,347
2013-8-10,84,73,64,68,65,63,94,76,51,30.23,30.14,30.04,10,10,10,14,14,,0.00,5,,20
2013-8-11,93,80,68,71,67,64,100,74,41,30.18,30.07,29.97,10,8,0,,,,1.10,2,Fog-Rain-Thunderstorm,-1
2013-8-12,95,82,71,72,68,65,96,75,38,30.14,30.00,29.91,10,10,2,16,11,24,0.23,2,Rain-Thunderstorm,243
2013-8-13,84,76,68,70,68,66,96,83,56,30.13,30.04,29.94,10,10,4,17,8,29,0.26,5,Rain-Thunderstorm,13
2013-8-14,84,75,66,68,65,62,97,77,49,30.19,30.10,30.00,10,9,2,12,8,,0.00,5,,59
2013-8-15,87,76,66,70,67,64,90,74,48,30.12,30.03,29.94,10,10,8,14,9,21,0.00,3,,154
2013-8-16,87,76,66,66,63,61,90,70,44,30.12,30.04,29.97,10,10,10,21,11,25,0.00,2,Rain-Thunderstorm,133
2013-8-17,84,75,66,65,63,61,93,69,46,30.12,30.06,30.01,10,10,10,15,10,20,0.00,3,,134
2013-8-18,88,76,64,64,61,58,90,62,37,30.10,30.04,29.98,10,10,8,18,11,25,0.00,1,,135
2013-8-19,91,80,68,63,60,58,78,54,34,30.03,29.99,29.93,10,10,10,24,13,30,0.00,0,,145
2013-8-20,96,82,69,63,60,59,73,50,30,30.00,29.96,29.92,10,10,10,20,12,28,0.00,0,,145
2013-8-21,95,82,70,61,56,52,66,44,23,30.05,30.00,29.96,10,10,10,17,11,23,0.00,0,,173
2013-8-22,96,82,70,65,59,53,76,49,25,30.06,29.99,29.92,10,10,10,15,9,21,0.00,0,,179
2013-8-23,98,85,72,68,63,55,82,52,24,30.01,29.96,29.89,10,10,10,16,10,21,0.00,0,,150
2013-8-24,98,85,73,67,64,59,76,53,28,30.06,30.01,29.97,10,10,10,18,11,25,0.00,0,,157
2013-8-25,97,84,73,66,63,59,76,52,30,30.13,30.09,30.05,10,10,10,15,11,23,0.00,1,,147
2013-8-26,95,82,72,64,62,58,73,50,31,30.15,30.10,30.04,10,10,10,18,10,23,0.00,0,,163
2013-8-27,91,80,70,67,62,57,74,56,33,30.08,30.04,30.00,10,10,10,20,11,24,0.00,0,,162
2013-8-28,96,84,71,68,64,58,87,55,31,30.04,29.99,29.95,10,10,10,20,12,30,0.00,1,,190
2013-8-29,99,86,73,60,57,53,62,40,23,30.04,29.99,29.94,10,10,10,17,11,23,0.00,0,,194
2013-8-30,102,88,75,59,57,53,56,36,19,29.96,29.90,29.83,10,10,10,20,12,24,0.00,0,,197
2013-8-31,104,90,77,56,54,51,47,32,18,29.87,29.82,29.75,10,10,10,14,10,20,0.00,0,,202